Time;durP1;ratioP1;P1;durP2;ratioP2;P2;SDS_P1;SDS_P2;PMS_P1;PMS_P2;Temp;Humidity;BMP_temperature;BMP_pressure;BME280_temperature;BME280_humidity;BME280_pressure;Samples;Min_cycle;Max_cycle;Signal;HPM_P1;HPM_P2
2023/02/16 00:04:50;;;;;;;20.60;13.57;;;;;;;;;;10412265;28;20079;-50
2023/02/16 00:09:51;;;;;;;19.85;11.98;;;;;;;;;;10412077;28;20033;-51
2023/02/16 00:14:51;;;;;;;26.88;13.23;;;;;;;;;;10411236;28;20056;-52
2023/02/16 00:19:52;;;;;;;20.02;12.48;;;;;;;;;;10411773;28;20037;-52
2023/02/16 00:24:52;;;;;;;19.88;12.25;;;;;;;;;;10411764;28;20465;-51
2023/02/16 00:29:53;;;;;;;20.80;12.73;;;;;;;;;;10411309;28;20381;-50
2023/02/16 00:34:53;;;;;;;23.63;11.90;;;;;;;;;;10411103;28;20029;-50
2023/02/16 00:39:54;;;;;;;20.58;11.95;;;;;;;;;;10411028;28;20025;-51
2023/02/16 00:44:56;;;;;;;15.85;11.45;;;;;;;;;;10410702;28;20212;-50
2023/02/16 00:49:57;;;;;;;20.40;11.57;;;;;;;;;;10409649;28;20440;-55
2023/02/16 00:55:01;;;;;;;15.90;12.07;;;;;;;;;;10409197;28;20021;-58
2023/02/16 01:00:09;;;;;;;14.73;10.68;;;;;;;;;;10409938;28;20029;-56
2023/02/16 01:05:10;;;;;;;21.45;11.00;;;;;;;;;;10410065;28;20033;-57
2023/02/16 01:15:30;;;;;;;22.30;11.10;;;;;;;;;;10397146;28;20026;-53
2023/02/16 01:20:31;;;;;;;20.60;10.65;;;;;;;;;;10408316;28;20037;-51
2023/02/16 01:25:32;;;;;;;18.92;11.15;;;;;;;;;;10408139;28;20033;-57
2023/02/16 01:30:32;;;;;;;17.33;10.50;;;;;;;;;;10407963;28;20033;-57
2023/02/16 01:35:33;;;;;;;19.48;10.90;;;;;;;;;;10408845;28;20428;-57
2023/02/16 01:40:33;;;;;;;15.70;10.48;;;;;;;;;;10409163;28;20354;-55
2023/02/16 01:45:39;;;;;;;19.83;10.88;;;;;;;;;;10406880;28;20137;-50
2023/02/16 01:51:04;;;;;;;17.33;11.07;;;;;;;;;;10407254;28;20025;-56
2023/02/16 01:56:32;;;;;;;14.88;10.40;;;;;;;;;;10399203;28;20452;-56
2023/02/16 02:01:40;;;;;;;19.15;10.15;;;;;;;;;;10399046;28;20049;-54
2023/02/16 02:06:40;;;;;;;17.83;10.45;;;;;;;;;;10407928;28;20367;-52
2023/02/16 02:11:53;;;;;;;24.83;12.63;;;;;;;;;;10406952;28;20057;-58
2023/02/16 02:16:57;;;;;;;19.15;9.70;;;;;;;;;;10395489;28;20021;-57
2023/02/16 02:28:24;;;;;;;13.63;9.43;;;;;;;;;;10403939;28;20049;-56
2023/02/16 02:33:44;;;;;;;13.23;9.82;;;;;;;;;;10410175;28;20025;-56
2023/02/16 02:38:58;;;;;;;14.35;9.68;;;;;;;;;;10397912;28;20045;-56
2023/02/16 02:44:03;;;;;;;14.15;9.90;;;;;;;;;;10406067;28;20029;-57
2023/02/16 02:49:03;;;;;;;16.63;9.57;;;;;;;;;;10405859;28;20171;-56
2023/02/16 03:05:35;;;;;;;14.50;9.13;;;;;;;;;;10398863;28;20025;-56
2023/02/16 03:15:57;;;;;;;13.82;9.10;;;;;;;;;;10407503;28;20477;-56
2023/02/16 03:31:39;;;;;;;16.30;8.75;;;;;;;;;;10404510;28;20056;-51
2023/02/16 03:36:44;;;;;;;14.18;9.38;;;;;;;;;;10412433;28;20512;-54
2023/02/16 03:41:49;;;;;;;12.38;9.10;;;;;;;;;;10412660;28;20396;-52
2023/02/16 03:46:50;;;;;;;15.50;9.90;;;;;;;;;;10411802;28;20520;-55
2023/02/16 03:51:51;;;;;;;14.52;9.20;;;;;;;;;;10413635;28;20040;-54
2023/02/16 03:56:51;;;;;;;12.32;8.77;;;;;;;;;;10412643;28;20025;-53
2023/02/16 04:01:52;;;;;;;11.35;8.88;;;;;;;;;;10413045;28;20049;-54
2023/02/16 04:06:53;;;;;;;12.13;8.07;;;;;;;;;;10413007;28;20040;-50
2023/02/16 04:17:12;;;;;;;10.25;7.82;;;;;;;;;;10412188;28;20021;-51
2023/02/16 04:22:13;;;;;;;17.50;8.70;;;;;;;;;;10412042;28;20366;-52
2023/02/16 04:27:13;;;;;;;10.40;7.63;;;;;;;;;;10412001;28;20119;-56
2023/02/16 04:32:14;;;;;;;14.27;9.13;;;;;;;;;;10403262;28;20025;-52
2023/02/16 04:37:15;;;;;;;11.98;8.63;;;;;;;;;;10411430;28;20041;-54
2023/02/16 04:42:15;;;;;;;12.15;8.40;;;;;;;;;;10411247;28;20032;-55
2023/02/16 04:47:16;;;;;;;11.52;8.05;;;;;;;;;;10410755;28;20496;-56
2023/02/16 04:52:17;;;;;;;11.57;8.30;;;;;;;;;;10410594;28;20177;-53
2023/02/16 04:57:20;;;;;;;10.65;8.43;;;;;;;;;;10410721;28;20472;-53
2023/02/16 05:02:20;;;;;;;10.23;7.90;;;;;;;;;;10410463;28;20057;-53
2023/02/16 05:07:21;;;;;;;9.38;7.88;;;;;;;;;;10410066;28;20040;-51
2023/02/16 05:17:41;;;;;;;12.18;8.25;;;;;;;;;;10410039;28;20034;-52
2023/02/16 05:22:43;;;;;;;11.32;8.63;;;;;;;;;;10409546;28;20033;-53
2023/02/16 05:27:43;;;;;;;9.13;8.02;;;;;;;;;;10408813;28;20021;-56
2023/02/16 05:32:44;;;;;;;10.63;7.63;;;;;;;;;;10400436;28;20029;-53
2023/02/16 05:37:44;;;;;;;10.85;8.07;;;;;;;;;;10409046;28;20068;-56
2023/02/16 05:42:45;;;;;;;11.00;7.68;;;;;;;;;;10409030;28;20018;-58
2023/02/16 05:47:46;;;;;;;10.25;7.82;;;;;;;;;;10408762;28;20362;-57
2023/02/16 05:52:46;;;;;;;10.88;7.85;;;;;;;;;;10408781;28;20021;-58
2023/02/16 05:57:47;;;;;;;10.05;7.43;;;;;;;;;;10408883;28;20036;-60
2023/02/16 06:02:47;;;;;;;11.73;7.65;;;;;;;;;;10408468;28;20025;-58
2023/02/16 06:07:48;;;;;;;8.85;7.50;;;;;;;;;;10407959;28;20034;-57
2023/02/16 06:12:48;;;;;;;11.10;7.43;;;;;;;;;;10408195;28;20017;-58
2023/02/16 06:17:49;;;;;;;11.75;7.20;;;;;;;;;;10406505;28;20030;-59
2023/02/16 06:22:50;;;;;;;10.60;7.43;;;;;;;;;;10404598;28;20022;-54
2023/02/16 06:27:51;;;;;;;34.13;9.10;;;;;;;;;;10399881;28;20480;-51
2023/02/16 06:32:52;;;;;;;13.13;10.15;;;;;;;;;;10399064;28;20042;-50
2023/02/16 06:37:52;;;;;;;14.63;9.90;;;;;;;;;;10403433;28;20041;-53
2023/02/16 06:42:53;;;;;;;13.60;9.45;;;;;;;;;;10406151;28;20060;-50
2023/02/16 06:47:53;;;;;;;14.63;10.02;;;;;;;;;;10405692;28;20029;-52
2023/02/16 06:52:54;;;;;;;13.80;9.57;;;;;;;;;;10401352;28;20440;-54
2023/02/16 06:57:55;;;;;;;29.30;10.85;;;;;;;;;;10408149;28;20427;-50
2023/02/16 07:02:55;;;;;;;19.05;10.57;;;;;;;;;;10412904;28;20041;-50
2023/02/16 07:07:56;;;;;;;27.70;12.45;;;;;;;;;;10413202;28;20037;-51
2023/02/16 07:12:56;;;;;;;24.48;10.85;;;;;;;;;;10412433;28;20503;-50
2023/02/16 07:17:57;;;;;;;23.42;11.80;;;;;;;;;;10410989;28;20249;-50
2023/02/16 07:22:57;;;;;;;19.13;12.38;;;;;;;;;;10411206;28;20111;-50
2023/02/16 07:27:58;;;;;;;26.73;12.70;;;;;;;;;;10412642;28;20034;-49
2023/02/16 07:32:59;;;;;;;25.15;11.63;;;;;;;;;;10413763;28;20029;-49
2023/02/16 07:37:59;;;;;;;19.63;11.18;;;;;;;;;;10412878;28;20515;-57
2023/02/16 07:43:02;;;;;;;28.23;11.45;;;;;;;;;;10413426;28;20481;-56
2023/02/16 07:48:03;;;;;;;18.80;12.55;;;;;;;;;;10412854;28;20092;-55
2023/02/16 07:53:04;;;;;;;25.30;11.93;;;;;;;;;;10413103;28;20120;-56
2023/02/16 07:58:04;;;;;;;23.25;12.07;;;;;;;;;;10412606;28;20119;-55
2023/02/16 08:03:05;;;;;;;16.20;11.15;;;;;;;;;;10412492;28;20026;-51
2023/02/16 08:08:05;;;;;;;17.92;11.35;;;;;;;;;;10412767;28;20025;-55
2023/02/16 08:13:06;;;;;;;24.50;11.75;;;;;;;;;;10412221;28;20022;-48
2023/02/16 08:18:06;;;;;;;16.83;11.80;;;;;;;;;;10412517;28;20523;-50
2023/02/16 08:23:09;;;;;;;16.95;11.68;;;;;;;;;;10412138;28;20465;-52
2023/02/16 08:28:13;;;;;;;20.55;12.02;;;;;;;;;;10407877;28;20470;-52
2023/02/16 08:33:14;;;;;;;23.52;12.63;;;;;;;;;;10407020;28;20022;-52
2023/02/16 08:38:16;;;;;;;19.95;11.77;;;;;;;;;;10411021;28;20041;-51
2023/02/16 08:43:16;;;;;;;16.80;10.85;;;;;;;;;;10411036;28;20473;-50
2023/02/16 08:48:17;;;;;;;17.63;11.70;;;;;;;;;;10410597;28;20080;-50
2023/02/16 08:53:20;;;;;;;19.30;12.43;;;;;;;;;;10411042;28;20040;-53
2023/02/16 08:58:22;;;;;;;24.92;12.65;;;;;;;;;;10410275;28;20041;-58
2023/02/16 09:03:23;;;;;;;19.33;12.23;;;;;;;;;;10410396;28;20033;-57
2023/02/16 09:08:23;;;;;;;20.67;12.30;;;;;;;;;;10410100;28;20330;-57
2023/02/16 09:13:25;;;;;;;22.10;12.73;;;;;;;;;;10409811;28;20051;-48
2023/02/16 09:18:26;;;;;;;22.27;12.40;;;;;;;;;;10409137;28;20018;-55
2023/02/16 09:23:27;;;;;;;20.05;12.05;;;;;;;;;;10409575;28;20120;-48
2023/02/16 09:28:29;;;;;;;17.85;11.75;;;;;;;;;;10402963;28;20553;-57
2023/02/16 09:33:30;;;;;;;20.00;12.18;;;;;;;;;;10406916;28;20068;-58
2023/02/16 09:38:30;;;;;;;21.13;12.60;;;;;;;;;;10408771;28;20041;-58
2023/02/16 09:43:59;;;;;;;15.63;11.27;;;;;;;;;;10408890;28;20473;-57
2023/02/16 09:49:02;;;;;;;18.33;12.70;;;;;;;;;;10379096;28;20132;-55
2023/02/16 09:54:37;;;;;;;16.77;12.27;;;;;;;;;;10408198;28;20061;-50
2023/02/16 09:59:48;;;;;;;17.67;12.05;;;;;;;;;;10408226;28;20029;-49
2023/02/16 10:05:11;;;;;;;21.20;12.68;;;;;;;;;;10406536;28;20257;-51
2023/02/16 10:10:20;;;;;;;20.65;12.20;;;;;;;;;;10407867;28;20033;-49
2023/02/16 10:15:25;;;;;;;;;;;;;;;;;;10407057;28;20097;-51
2023/02/16 10:20:38;;;;;;;19.13;11.45;;;;;;;;;;10422614;28;19913;-49
2023/02/16 10:26:01;;;;;;;15.98;11.82;;;;;;;;;;10406215;28;20049;-52
2023/02/16 10:31:23;;;;;;;20.85;11.98;;;;;;;;;;10405930;28;20481;-51
2023/02/16 10:36:50;;;;;;;17.10;12.48;;;;;;;;;;10406543;28;20045;-49
2023/02/16 10:42:16;;;;;;;16.90;11.35;;;;;;;;;;10403222;28;20053;-52
2023/02/16 10:47:38;;;;;;;19.33;12.05;;;;;;;;;;10397262;28;20030;-54
2023/02/16 10:52:41;;;;;;;14.98;11.10;;;;;;;;;;10407472;28;20033;-49
2023/02/16 10:57:42;;;;;;;17.80;11.88;;;;;;;;;;10405739;28;20090;-50
2023/02/16 11:02:47;;;;;;;20.58;11.55;;;;;;;;;;10406844;28;20082;-48
2023/02/16 11:08:00;;;;;;;21.38;11.75;;;;;;;;;;10405911;28;20037;-49
2023/02/16 11:13:01;;;;;;;16.42;11.45;;;;;;;;;;10406670;28;20030;-49
2023/02/16 11:18:21;;;;;;;17.45;11.45;;;;;;;;;;10406433;28;20586;-49
2023/02/16 11:23:27;;;;;;;16.02;11.27;;;;;;;;;;10405892;28;20032;-49
2023/02/16 11:28:33;;;;;;;15.40;12.23;;;;;;;;;;10399987;28;20087;-48
2023/02/16 11:33:36;;;;;;;18.25;11.82;;;;;;;;;;10404662;28;20029;-48
2023/02/16 11:38:37;;;;;;;15.50;12.27;;;;;;;;;;10408261;28;20505;-48
2023/02/16 11:43:41;;;;;;;14.45;10.80;;;;;;;;;;10412050;28;20038;-49
2023/02/16 11:48:42;;;;;;;15.57;11.48;;;;;;;;;;10411717;28;20054;-48
2023/02/16 11:53:43;;;;;;;16.77;11.35;;;;;;;;;;10411817;28;20021;-48
2023/02/16 11:58:44;;;;;;;14.52;11.25;;;;;;;;;;10412714;28;20025;-49
2023/02/16 12:03:51;;;;;;;14.48;11.48;;;;;;;;;;10412885;28;20026;-53
2023/02/16 12:09:10;;;;;;;18.48;11.88;;;;;;;;;;10411022;28;20147;-49
2023/02/16 12:14:47;;;;;;;18.65;11.77;;;;;;;;;;10411685;28;20057;-48
2023/02/16 12:20:14;;;;;;;17.52;11.35;;;;;;;;;;10408608;28;20033;-49
2023/02/16 12:26:10;;;;;;;15.05;11.02;;;;;;;;;;10410732;28;20021;-49
2023/02/16 12:31:49;;;;;;;16.63;11.48;;;;;;;;;;10397169;28;20058;-53
2023/02/16 12:36:51;;;;;;;15.15;11.50;;;;;;;;;;10411264;28;20065;-51
2023/02/16 12:42:16;;;;;;;18.98;12.63;;;;;;;;;;10408416;28;20103;-52
2023/02/16 12:47:31;;;;;;;18.48;12.38;;;;;;;;;;10409939;28;20373;-56
2023/02/16 12:52:39;;;;;;;15.70;11.43;;;;;;;;;;10400609;28;20030;-56
2023/02/16 12:57:51;;;;;;;18.85;11.25;;;;;;;;;;10410535;28;20116;-55
2023/02/16 13:03:19;;;;;;;17.20;11.27;;;;;;;;;;10409363;28;20029;-55
2023/02/16 13:08:47;;;;;;;16.30;10.93;;;;;;;;;;10409461;28;20029;-49
2023/02/16 13:13:50;;;;;;;16.48;11.30;;;;;;;;;;10418202;28;20057;-49
2023/02/16 13:18:55;;;;;;;16.92;9.82;;;;;;;;;;10407877;28;20029;-53
2023/02/16 13:24:49;;;;;;;14.70;10.15;;;;;;;;;;10409711;28;20108;-50
2023/02/16 13:30:03;;;;;;;16.20;10.52;;;;;;;;;;10321870;28;20022;-49
2023/02/16 13:35:31;;;;;;;19.50;10.75;;;;;;;;;;10319819;28;20042;-48
2023/02/16 13:41:03;;;;;;;15.52;10.43;;;;;;;;;;10316989;28;20522;-51
2023/02/16 13:46:12;;;;;;;14.07;9.82;;;;;;;;;;10317621;28;20061;-50
2023/02/16 13:51:19;;;;;;;13.70;10.10;;;;;;;;;;10316610;28;20457;-51
2023/02/16 13:56:31;;;;;;;15.43;10.38;;;;;;;;;;10302159;28;20031;-52
2023/02/16 14:01:36;;;;;;;16.75;10.30;;;;;;;;;;10404887;28;20095;-52
2023/02/16 14:06:41;;;;;;;14.40;9.82;;;;;;;;;;10391626;28;20029;-52
2023/02/16 14:11:58;;;;;;;14.90;10.15;;;;;;;;;;10398632;28;20032;-53
2023/02/16 14:17:15;;;;;;;14.35;10.35;;;;;;;;;;10406573;28;20022;-56
2023/02/16 14:22:27;;;;;;;13.45;10.07;;;;;;;;;;10407273;28;20389;-51
2023/02/16 14:27:43;;;;;;;12.30;9.30;;;;;;;;;;10406994;28;20022;-55
2023/02/16 14:33:16;;;;;;;15.10;9.85;;;;;;;;;;10401716;28;20034;-57
2023/02/16 14:38:47;;;;;;;12.70;10.30;;;;;;;;;;10362217;28;20041;-54
2023/02/16 14:43:55;;;;;;;12.43;9.32;;;;;;;;;;10405046;28;20116;-50
2023/02/16 14:49:05;;;;;;;17.63;9.60;;;;;;;;;;10406718;28;20389;-52
2023/02/16 14:54:56;;;;;;;15.75;10.20;;;;;;;;;;10406286;28;20026;-50
2023/02/16 15:00:44;;;;;;;12.73;9.60;;;;;;;;;;10403420;28;20489;-54
2023/02/16 15:06:01;;;;;;;13.70;10.25;;;;;;;;;;10406093;28;20048;-53
2023/02/16 15:11:22;;;;;;;13.50;10.13;;;;;;;;;;10420897;28;20034;-54
2023/02/16 15:16:23;;;;;;;16.02;10.75;;;;;;;;;;10408719;28;20060;-57
2023/02/16 15:21:27;;;;;;;14.88;11.00;;;;;;;;;;10412221;28;20072;-53
2023/02/16 15:26:32;;;;;;;15.73;11.15;;;;;;;;;;10411810;28;20029;-59
2023/02/16 15:31:36;;;;;;;15.00;10.90;;;;;;;;;;10408201;28;20239;-56
2023/02/16 15:36:43;;;;;;;16.88;10.77;;;;;;;;;;10410715;28;20512;-51
2023/02/16 15:41:48;;;;;;;15.60;10.93;;;;;;;;;;10412209;28;20673;-51
2023/02/16 15:46:48;;;;;;;15.57;10.60;;;;;;;;;;10409063;28;20650;-57
2023/02/16 15:51:49;;;;;;;17.45;11.23;;;;;;;;;;10410695;28;20030;-51
2023/02/16 15:56:59;;;;;;;22.60;12.23;;;;;;;;;;10410105;28;20025;-59
2023/02/16 16:02:03;;;;;;;15.68;11.73;;;;;;;;;;10401644;28;20076;-53
2023/02/16 16:07:07;;;;;;;19.88;13.35;;;;;;;;;;10425991;28;20465;-59
2023/02/16 16:12:13;;;;;;;20.63;12.57;;;;;;;;;;10404196;28;20037;-59
2023/02/16 16:17:17;;;;;;;18.45;13.00;;;;;;;;;;10410617;28;20118;-59
2023/02/16 16:22:38;;;;;;;22.10;14.65;;;;;;;;;;10409746;28;20044;-50
2023/02/16 16:27:47;;;;;;;20.95;14.65;;;;;;;;;;10401068;28;20236;-51
2023/02/16 16:33:09;;;;;;;24.23;15.68;;;;;;;;;;10410053;28;20029;-54
2023/02/16 16:38:41;;;;;;;25.98;15.85;;;;;;;;;;10410074;28;20045;-51
2023/02/16 16:43:53;;;;;;;20.25;15.00;;;;;;;;;;10396042;28;20040;-53
2023/02/16 16:49:02;;;;;;;21.67;15.10;;;;;;;;;;10409806;28;20034;-50
2023/02/16 16:54:10;;;;;;;21.05;15.15;;;;;;;;;;10392550;28;20108;-51
2023/02/16 16:59:11;;;;;;;22.30;14.85;;;;;;;;;;10410065;28;20234;-50
2023/02/16 17:04:11;;;;;;;21.95;14.98;;;;;;;;;;10408949;28;20543;-51
2023/02/16 17:09:12;;;;;;;20.35;15.05;;;;;;;;;;10408773;28;20485;-50
2023/02/16 17:14:19;;;;;;;23.02;14.80;;;;;;;;;;10408502;28;20496;-50
2023/02/16 17:19:21;;;;;;;21.67;15.60;;;;;;;;;;10408217;28;20108;-52
2023/02/16 17:24:22;;;;;;;20.85;15.02;;;;;;;;;;10409115;28;20030;-51
2023/02/16 17:29:23;;;;;;;21.15;14.48;;;;;;;;;;10404983;28;20045;-51
2023/02/16 17:34:28;;;;;;;22.45;14.73;;;;;;;;;;10408236;28;20025;-51
2023/02/16 17:39:29;;;;;;;24.00;16.13;;;;;;;;;;10408091;28;20231;-52
2023/02/16 17:44:30;;;;;;;26.50;15.52;;;;;;;;;;10406238;28;20254;-52
2023/02/16 17:49:30;;;;;;;24.30;15.43;;;;;;;;;;10405276;28;20048;-54
2023/02/16 17:54:31;;;;;;;27.92;15.82;;;;;;;;;;10405971;28;20040;-58
2023/02/16 17:59:32;;;;;;;24.77;16.50;;;;;;;;;;10393784;28;20436;-53
2023/02/16 18:04:40;;;;;;;24.13;15.70;;;;;;;;;;10391173;28;20033;-55
2023/02/16 18:09:40;;;;;;;50.45;16.30;;;;;;;;;;10392790;28;20038;-53
2023/02/16 18:14:41;;;;;;;36.88;15.88;;;;;;;;;;10388663;28;20037;-55
2023/02/16 18:19:42;;;;;;;40.97;16.70;;;;;;;;;;10390544;28;20033;-57
2023/02/16 18:24:43;;;;;;;34.40;15.63;;;;;;;;;;10402971;28;20021;-57
2023/02/16 18:29:43;;;;;;;30.27;15.23;;;;;;;;;;10402904;28;20365;-55
2023/02/16 18:34:44;;;;;;;30.55;16.58;;;;;;;;;;10398938;28;20053;-58
2023/02/16 18:39:45;;;;;;;48.38;19.00;;;;;;;;;;10401283;28;20046;-57
2023/02/16 18:44:47;;;;;;;31.45;18.27;;;;;;;;;;10398441;28;20477;-58
2023/02/16 18:49:49;;;;;;;29.02;19.75;;;;;;;;;;10410832;28;20437;-57
2023/02/16 18:54:50;;;;;;;29.98;16.85;;;;;;;;;;10415106;28;20033;-57
2023/02/16 18:59:50;;;;;;;35.05;19.13;;;;;;;;;;10414174;28;20037;-56
2023/02/16 19:04:51;;;;;;;32.92;20.05;;;;;;;;;;10410249;28;20021;-57
2023/02/16 19:09:51;;;;;;;35.13;20.55;;;;;;;;;;10414797;28;20029;-57
2023/02/16 19:14:52;;;;;;;37.65;19.90;;;;;;;;;;10415194;28;20504;-57
2023/02/16 19:19:52;;;;;;;31.10;20.65;;;;;;;;;;10414300;28;20572;-57
2023/02/16 19:24:53;;;;;;;32.08;18.55;;;;;;;;;;10414459;28;20030;-57
2023/02/16 19:29:54;;;;;;;33.63;18.70;;;;;;;;;;10405508;28;20028;-57
2023/02/16 19:34:54;;;;;;;35.97;19.65;;;;;;;;;;10413810;28;20033;-56
2023/02/16 19:39:55;;;;;;;27.20;19.08;;;;;;;;;;10413224;28;20045;-58
2023/02/16 19:44:55;;;;;;;29.77;18.55;;;;;;;;;;10414099;28;20025;-58
2023/02/16 19:49:56;;;;;;;28.00;18.65;;;;;;;;;;10413301;28;20032;-56
2023/02/16 19:54:57;;;;;;;30.25;19.98;;;;;;;;;;10413153;28;20025;-57
2023/02/16 19:59:57;;;;;;;29.38;19.45;;;;;;;;;;10411982;28;20033;-57
2023/02/16 20:04:58;;;;;;;25.75;18.88;;;;;;;;;;10400774;28;20029;-58
2023/02/16 20:09:58;;;;;;;27.45;18.67;;;;;;;;;;10413135;28;20021;-56
2023/02/16 20:14:59;;;;;;;26.35;19.00;;;;;;;;;;10412679;28;20044;-58
2023/02/16 20:20:00;;;;;;;26.38;19.15;;;;;;;;;;10412085;28;20048;-57
2023/02/16 20:25:01;;;;;;;31.65;19.35;;;;;;;;;;10411980;28;20026;-58
2023/02/16 20:30:06;;;;;;;26.25;18.60;;;;;;;;;;10403352;28;20075;-57
2023/02/16 20:35:07;;;;;;;28.00;19.13;;;;;;;;;;10411513;28;20053;-56
2023/02/16 20:40:08;;;;;;;26.50;19.45;;;;;;;;;;10411426;28;20471;-58
2023/02/16 20:45:09;;;;;;;23.33;18.30;;;;;;;;;;10411047;28;20022;-57
2023/02/16 20:50:10;;;;;;;28.75;19.25;;;;;;;;;;10411006;28;20029;-56
2023/02/16 20:55:11;;;;;;;26.77;18.60;;;;;;;;;;10410641;28;20591;-57
2023/02/16 21:00:20;;;;;;;22.27;17.88;;;;;;;;;;10411224;28;20576;-57
2023/02/16 21:05:21;;;;;;;22.27;17.65;;;;;;;;;;10410226;28;20483;-57
2023/02/16 21:10:22;;;;;;;26.25;18.60;;;;;;;;;;10409116;28;20065;-57
2023/02/16 21:15:22;;;;;;;24.38;18.05;;;;;;;;;;10410247;28;20057;-57
2023/02/16 21:20:23;;;;;;;23.45;17.27;;;;;;;;;;10409513;28;20041;-57
2023/02/16 21:25:23;;;;;;;25.63;18.10;;;;;;;;;;10410057;28;20036;-56
2023/02/16 21:30:24;;;;;;;23.75;17.85;;;;;;;;;;10397076;28;20025;-56
2023/02/16 21:35:25;;;;;;;22.33;16.58;;;;;;;;;;10409203;28;20049;-57
2023/02/16 21:45:45;;;;;;;24.20;17.00;;;;;;;;;;10409295;28;20038;-57
2023/02/16 21:50:45;;;;;;;22.13;16.75;;;;;;;;;;10409206;28;20388;-56
2023/02/16 22:01:05;;;;;;;19.50;15.70;;;;;;;;;;10408490;28;20100;-57
2023/02/16 22:06:07;;;;;;;24.13;17.13;;;;;;;;;;10406257;28;20029;-58
2023/02/16 22:11:11;;;;;;;25.50;17.95;;;;;;;;;;10405642;28;20029;-58
2023/02/16 22:16:16;;;;;;;23.48;16.98;;;;;;;;;;10402092;28;20037;-57
2023/02/16 22:21:17;;;;;;;24.13;18.27;;;;;;;;;;10405306;28;20037;-57
2023/02/16 22:26:27;;;;;;;23.63;18.45;;;;;;;;;;10421479;28;20021;-58
2023/02/16 22:31:28;;;;;;;23.08;16.80;;;;;;;;;;10394475;28;20034;-56
2023/02/16 22:36:29;;;;;;;25.67;18.33;;;;;;;;;;10407180;28;20049;-57
2023/02/16 22:41:30;;;;;;;26.25;19.17;;;;;;;;;;10405942;28;20180;-58
2023/02/16 22:46:31;;;;;;;27.15;18.45;;;;;;;;;;10397333;28;20181;-57
2023/02/16 22:51:32;;;;;;;24.20;17.30;;;;;;;;;;10404682;28;20029;-54
2023/02/16 22:56:33;;;;;;;22.13;16.75;;;;;;;;;;10403625;28;20033;-50
2023/02/16 23:01:33;;;;;;;28.20;16.85;;;;;;;;;;10399701;28;20040;-53
2023/02/16 23:06:35;;;;;;;21.83;17.00;;;;;;;;;;10386014;28;20033;-55
2023/02/16 23:11:36;;;;;;;22.00;16.92;;;;;;;;;;10403528;28;20112;-56
2023/02/16 23:16:36;;;;;;;23.40;16.27;;;;;;;;;;10406261;28;20122;-55
2023/02/16 23:21:37;;;;;;;29.50;16.63;;;;;;;;;;10399789;28;20028;-56
2023/02/16 23:26:38;;;;;;;35.80;16.60;;;;;;;;;;10394440;28;20041;-54
2023/02/16 23:31:41;;;;;;;24.00;15.73;;;;;;;;;;10391761;28;20029;-56
2023/02/16 23:36:42;;;;;;;20.55;14.75;;;;;;;;;;10399649;28;20045;-58
2023/02/16 23:41:43;;;;;;;19.30;15.27;;;;;;;;;;10396709;28;20040;-55
2023/02/16 23:46:44;;;;;;;21.08;15.18;;;;;;;;;;10410643;28;20033;-56
2023/02/16 23:51:44;;;;;;;20.98;15.20;;;;;;;;;;10406051;28;20041;-56
2023/02/16 23:56:45;;;;;;;20.90;14.40;;;;;;;;;;10405327;28;20393;-55
